Terminal Aerodrome Forecast
Issued by NWS Corpus Christi, TX

Home | Current Version | Previous Version | Text Only | Print | Product List | Glossary On
Versions: 1 2 3 4 5 6 7 8 9 10 11 12 13
000
FTUS44 KCRP 291700
TAFVCT
TAF
KVCT 291731Z 2918/3018 13010KT P6SM VCTS SCT035CB BKN250
      TEMPO 2918/2920 -TSRA BKN035CB
     FM292000 VRB06KT P6SM SCT025 BKN250
      TEMPO 3009/3013 BKN024
     FM301300 VRB05KT P6SM SCT025 PROB30 3013/3018 -TSRA BKN025CB=

USA.gov is the U.S. government's official web portal to all federal, state and local government web resources and services.